Tuscaloosa Regional Airport
KTCL : now visible

Airfield :











YOU CAN JOIN US ON...

 
LOGIN :

Register | Disclaimer

   EN    FR    IT 

 









Legend :    VFR   Marginal VFR   IFR   Intensive IFR   Very Intensive IFR
Visi :
Ceiling :
>= 8 km
>= 3000ft
5 to 8 km
1000 to 3000 ft
1500m to 5 km
500 to 1000 ft
800 to 1500m
200 to 500 ft
< 800m
< 200 ft
Symbols :   Thunderstorms  Fog  Heavy snow  Heavy precipitations  Wind > 20 kt






- Airport Elevation : 170 ft
- IATA code : TCL


KTCL - Tuscaloosa Regional

CURRENT METAR :
  • 180702Z AUTO 06003KT 7SM -RA OVC008 15/14 A3007 RMK AO2 LTG DSNT S CIG 006V012 P0001 T01500139

EXPIRED METARs :
  • 180653Z AUTO 01004KT 2 1/2SM -RA BR BKN008 OVC012 15/14 A3007 RMK AO2 LTG DSNT S RAE11B22 CIG 006V009 SLP179 P0008 T01500139
  • 180631Z AUTO 00000KT 10SM -RA BKN009 OVC015 16/14 A3006 RMK AO2 LTG DSNT E RAE11B22 CIG 007V012 P0002 T01560139
  • 180611Z AUTO 00000KT 9SM SCT007 BKN012 OVC024 15/14 A3007 RMK AO2 LTG DSNT NE RAE11 P0002 T01500139
  • 180602Z AUTO 06004KT 3SM -RA BR BKN007 BKN012 OVC024 15/14 A3006 RMK AO2 LTG DSNT NE-S CIG 004V010 P0002 T01500139
  • 180534Z AUTO 11007KT 5SM VCTS -RA BR BKN011 BKN021 OVC037 16/13 A3005 RMK AO2 LTG DSNT SE RAB06 P0003 T01560133
  • 180517Z AUTO 15008KT 130V190 8SM VCTS -RA SCT013 BKN022 OVC037 16/13 A3005 RMK AO2 LTG DSNT W RAB06 P0000 T01560133
  • 180453Z AUTO 13007KT 10SM SCT013 OVC038 16/13 A3006 RMK AO2 SLP176 T01610128

TAF KTCL
Valid from the 18 at 07:00 until the 19 at 06:00 UTC


180654Z 1807/1906 15006KT 6SM SHRA BKN008 OVC015
FM181000 14006KT 4SM SHRA OVC006
FM181700 18006KT 6SM SHRA OVC006
PROB30 1817/1821 4SM -TSRA BKN012CB OVC030
FM182100 21006KT 6SM SHRA OVC014
PROB30 1821/1824 4SM -TSRA SCT012 OVC028CB



MET'MAP, your aeronautical weather chart ! - Copyright ORBIFLY December 2007 - Disclaimer

ORBIFLY MET'MAP TEAM :

Programming & Development : Alexandra Zaïnal
Concept & original design : Baudouin d'Aumeries
Assistance for programming : Marc-Olivier Méhu
Technical & hardware support : Manuel Goepfert

Contact : metmap@orbifly.com




SOURCES & CREDITS :

   NOAA       Earth
Advisory